3RC weather

Roscommon Conservation Airport
Roscommon, Michigan, United States

Public forecast

Using degrees Fahrenheit for public forecast. Weather courtesy of forecast.io.

METAR (pilot weather report)

Closest report is Roscommon County - Blodgett Memorial Airport, 8.2 nm (15.3 km) SSW. Retrieved 2019/06/20 03:53 UTC (24 minutes ago):

KHTL 200353Z AUTO 02005KT 10SM CLR 15/13 A2974 RMK AO2 SLP071 T01500133

TAF (pilot weather forecast)

Forecast is more than 12 hours old.

Closest forecast is Cherry Capital Airport, 46.3 nm (85.7 km) WNW. Retrieved 2019/06/19 00:22 UTC (1 day ago):

TAF KTVC 192320Z 2000/2024 VRB04KT P6SM SCT200 FM200300 00000KT P6SM BKN025 FM200600 00000KT P6SM OVC150 FM201000 00000KT P6SM BKN040 FM201700 04006KT P6SM BKN120